sensor_id;sensor_type;location;lat;lon;timestamp;P1;durP1;ratioP1;P2;durP2;ratioP2
10244;SDS011;5167;52.164;10.530;2023-08-08T00:01:23;6.35;;;1.80;;
10244;SDS011;5167;52.164;10.530;2023-08-08T00:03:49;5.22;;;1.33;;
10244;SDS011;5167;52.164;10.530;2023-08-08T00:06:14;4.15;;;1.33;;
10244;SDS011;5167;52.164;10.530;2023-08-08T00:08:40;4.55;;;1.40;;
10244;SDS011;5167;52.164;10.530;2023-08-08T00:11:06;2.92;;;1.55;;
10244;SDS011;5167;52.164;10.530;2023-08-08T00:13:31;2.33;;;1.40;;
10244;SDS011;5167;52.164;10.530;2023-08-08T00:15:57;2.88;;;2.20;;
10244;SDS011;5167;52.164;10.530;2023-08-08T00:18:23;4.65;;;2.38;;
10244;SDS011;5167;52.164;10.530;2023-08-08T00:20:48;2.60;;;1.33;;
10244;SDS011;5167;52.164;10.530;2023-08-08T00:23:14;6.55;;;1.77;;
10244;SDS011;5167;52.164;10.530;2023-08-08T00:25:39;3.00;;;1.70;;
10244;SDS011;5167;52.164;10.530;2023-08-08T00:28:05;2.80;;;1.55;;
10244;SDS011;5167;52.164;10.530;2023-08-08T00:30:30;4.65;;;1.80;;
10244;SDS011;5167;52.164;10.530;2023-08-08T00:32:56;2.92;;;1.70;;
10244;SDS011;5167;52.164;10.530;2023-08-08T00:35:21;2.40;;;1.70;;
10244;SDS011;5167;52.164;10.530;2023-08-08T00:37:47;5.97;;;1.83;;
10244;SDS011;5167;52.164;10.530;2023-08-08T00:40:13;5.38;;;1.60;;
10244;SDS011;5167;52.164;10.530;2023-08-08T00:42:38;3.95;;;1.75;;
10244;SDS011;5167;52.164;10.530;2023-08-08T00:45:04;2.95;;;1.73;;
10244;SDS011;5167;52.164;10.530;2023-08-08T00:47:31;2.67;;;1.98;;
10244;SDS011;5167;52.164;10.530;2023-08-08T00:49:57;2.70;;;2.10;;
10244;SDS011;5167;52.164;10.530;2023-08-08T00:52:23;3.65;;;1.95;;
10244;SDS011;5167;52.164;10.530;2023-08-08T00:54:50;5.45;;;1.92;;
10244;SDS011;5167;52.164;10.530;2023-08-08T00:57:16;4.93;;;1.80;;
10244;SDS011;5167;52.164;10.530;2023-08-08T00:59:42;5.78;;;1.90;;
10244;SDS011;5167;52.164;10.530;2023-08-08T01:02:07;2.90;;;1.63;;
10244;SDS011;5167;52.164;10.530;2023-08-08T01:04:33;3.22;;;1.92;;
10244;SDS011;5167;52.164;10.530;2023-08-08T01:07:13;2.58;;;1.73;;
10244;SDS011;5167;52.164;10.530;2023-08-08T01:09:55;2.58;;;1.83;;
10244;SDS011;5167;52.164;10.530;2023-08-08T01:12:26;5.50;;;2.05;;
10244;SDS011;5167;52.164;10.530;2023-08-08T01:14:52;4.30;;;2.22;;
10244;SDS011;5167;52.164;10.530;2023-08-08T01:17:19;7.00;;;2.50;;
10244;SDS011;5167;52.164;10.530;2023-08-08T01:19:47;5.10;;;2.20;;
10244;SDS011;5167;52.164;10.530;2023-08-08T01:22:14;3.20;;;2.03;;
10244;SDS011;5167;52.164;10.530;2023-08-08T01:24:48;3.03;;;2.13;;
10244;SDS011;5167;52.164;10.530;2023-08-08T01:27:14;3.15;;;1.90;;
10244;SDS011;5167;52.164;10.530;2023-08-08T01:29:41;2.35;;;1.65;;
10244;SDS011;5167;52.164;10.530;2023-08-08T01:32:07;3.72;;;2.10;;
10244;SDS011;5167;52.164;10.530;2023-08-08T01:34:34;2.88;;;1.90;;
10244;SDS011;5167;52.164;10.530;2023-08-08T01:37:11;4.63;;;1.65;;
10244;SDS011;5167;52.164;10.530;2023-08-08T01:39:42;4.75;;;2.00;;
10244;SDS011;5167;52.164;10.530;2023-08-08T01:42:10;2.60;;;1.90;;
10244;SDS011;5167;52.164;10.530;2023-08-08T01:44:37;5.35;;;2.30;;
10244;SDS011;5167;52.164;10.530;2023-08-08T01:47:04;3.75;;;1.92;;
10244;SDS011;5167;52.164;10.530;2023-08-08T01:49:30;4.63;;;1.83;;
10244;SDS011;5167;52.164;10.530;2023-08-08T01:51:56;3.45;;;1.98;;
10244;SDS011;5167;52.164;10.530;2023-08-08T01:54:21;2.75;;;1.52;;
10244;SDS011;5167;52.164;10.530;2023-08-08T01:56:47;3.38;;;2.00;;
10244;SDS011;5167;52.164;10.530;2023-08-08T01:59:12;5.35;;;1.85;;
10244;SDS011;5167;52.164;10.530;2023-08-08T02:01:38;3.13;;;2.22;;
10244;SDS011;5167;52.164;10.530;2023-08-08T02:04:03;3.33;;;1.90;;
10244;SDS011;5167;52.164;10.530;2023-08-08T02:06:29;4.30;;;1.83;;
10244;SDS011;5167;52.164;10.530;2023-08-08T02:08:55;2.42;;;1.90;;
10244;SDS011;5167;52.164;10.530;2023-08-08T02:11:20;2.22;;;1.60;;
10244;SDS011;5167;52.164;10.530;2023-08-08T02:13:46;4.03;;;1.90;;
10244;SDS011;5167;52.164;10.530;2023-08-08T02:16:12;2.72;;;1.70;;
10244;SDS011;5167;52.164;10.530;2023-08-08T02:18:38;2.22;;;1.65;;
10244;SDS011;5167;52.164;10.530;2023-08-08T02:21:06;3.88;;;2.10;;
10244;SDS011;5167;52.164;10.530;2023-08-08T02:23:34;5.85;;;2.40;;
10244;SDS011;5167;52.164;10.530;2023-08-08T02:26:00;3.15;;;2.00;;
10244;SDS011;5167;52.164;10.530;2023-08-08T02:28:26;4.97;;;1.90;;
10244;SDS011;5167;52.164;10.530;2023-08-08T02:30:52;2.53;;;2.05;;
10244;SDS011;5167;52.164;10.530;2023-08-08T02:33:18;2.30;;;1.73;;
10244;SDS011;5167;52.164;10.530;2023-08-08T02:35:44;3.20;;;2.03;;
10244;SDS011;5167;52.164;10.530;2023-08-08T02:38:10;4.15;;;2.25;;
10244;SDS011;5167;52.164;10.530;2023-08-08T02:40:35;3.95;;;2.13;;
10244;SDS011;5167;52.164;10.530;2023-08-08T02:43:01;3.40;;;2.08;;
10244;SDS011;5167;52.164;10.530;2023-08-08T02:45:27;5.18;;;2.03;;
10244;SDS011;5167;52.164;10.530;2023-08-08T02:47:52;1.92;;;1.83;;
10244;SDS011;5167;52.164;10.530;2023-08-08T02:50:18;5.55;;;2.25;;
10244;SDS011;5167;52.164;10.530;2023-08-08T02:52:44;5.32;;;2.65;;
10244;SDS011;5167;52.164;10.530;2023-08-08T02:55:09;3.08;;;2.25;;
10244;SDS011;5167;52.164;10.530;2023-08-08T02:57:35;3.22;;;2.20;;
10244;SDS011;5167;52.164;10.530;2023-08-08T03:00:00;3.88;;;2.15;;
10244;SDS011;5167;52.164;10.530;2023-08-08T03:02:26;2.85;;;2.15;;
10244;SDS011;5167;52.164;10.530;2023-08-08T03:04:52;2.05;;;1.90;;
10244;SDS011;5167;52.164;10.530;2023-08-08T03:07:17;2.90;;;1.90;;
10244;SDS011;5167;52.164;10.530;2023-08-08T03:09:43;2.53;;;1.75;;
10244;SDS011;5167;52.164;10.530;2023-08-08T03:12:08;6.20;;;2.40;;
10244;SDS011;5167;52.164;10.530;2023-08-08T03:14:34;4.03;;;1.88;;
10244;SDS011;5167;52.164;10.530;2023-08-08T03:16:59;3.45;;;1.90;;
10244;SDS011;5167;52.164;10.530;2023-08-08T03:19:25;2.88;;;2.22;;
10244;SDS011;5167;52.164;10.530;2023-08-08T03:21:51;3.92;;;2.17;;
10244;SDS011;5167;52.164;10.530;2023-08-08T03:24:16;4.85;;;2.70;;
10244;SDS011;5167;52.164;10.530;2023-08-08T03:26:42;5.97;;;2.50;;
10244;SDS011;5167;52.164;10.530;2023-08-08T03:29:07;5.65;;;2.30;;
10244;SDS011;5167;52.164;10.530;2023-08-08T03:31:35;5.18;;;2.53;;
10244;SDS011;5167;52.164;10.530;2023-08-08T03:34:01;4.20;;;2.60;;
10244;SDS011;5167;52.164;10.530;2023-08-08T03:36:27;5.70;;;2.53;;
10244;SDS011;5167;52.164;10.530;2023-08-08T03:38:52;5.78;;;2.78;;
10244;SDS011;5167;52.164;10.530;2023-08-08T03:41:18;3.92;;;2.35;;
10244;SDS011;5167;52.164;10.530;2023-08-08T03:43:43;4.65;;;2.30;;
10244;SDS011;5167;52.164;10.530;2023-08-08T03:46:09;4.07;;;2.58;;
10244;SDS011;5167;52.164;10.530;2023-08-08T03:48:36;4.70;;;3.05;;
10244;SDS011;5167;52.164;10.530;2023-08-08T03:51:02;5.15;;;2.53;;
10244;SDS011;5167;52.164;10.530;2023-08-08T03:53:28;5.90;;;2.83;;
10244;SDS011;5167;52.164;10.530;2023-08-08T03:55:54;9.98;;;2.70;;
10244;SDS011;5167;52.164;10.530;2023-08-08T03:58:19;4.88;;;2.25;;
10244;SDS011;5167;52.164;10.530;2023-08-08T04:00:45;3.15;;;2.83;;
10244;SDS011;5167;52.164;10.530;2023-08-08T04:03:14;3.97;;;2.40;;
10244;SDS011;5167;52.164;10.530;2023-08-08T04:05:40;3.33;;;2.30;;
10244;SDS011;5167;52.164;10.530;2023-08-08T04:08:06;6.20;;;2.50;;
10244;SDS011;5167;52.164;10.530;2023-08-08T04:10:32;3.00;;;2.47;;
10244;SDS011;5167;52.164;10.530;2023-08-08T04:12:57;5.65;;;2.88;;
10244;SDS011;5167;52.164;10.530;2023-08-08T04:15:23;2.20;;;2.00;;
10244;SDS011;5167;52.164;10.530;2023-08-08T04:17:48;6.70;;;2.20;;
10244;SDS011;5167;52.164;10.530;2023-08-08T04:20:14;4.82;;;2.40;;
10244;SDS011;5167;52.164;10.530;2023-08-08T04:22:40;4.95;;;2.45;;
10244;SDS011;5167;52.164;10.530;2023-08-08T04:25:05;4.03;;;2.15;;
10244;SDS011;5167;52.164;10.530;2023-08-08T04:27:31;2.38;;;2.08;;
10244;SDS011;5167;52.164;10.530;2023-08-08T04:29:57;2.63;;;2.00;;
10244;SDS011;5167;52.164;10.530;2023-08-08T04:32:22;4.57;;;2.35;;
10244;SDS011;5167;52.164;10.530;2023-08-08T04:34:48;4.10;;;2.08;;
10244;SDS011;5167;52.164;10.530;2023-08-08T04:37:13;2.85;;;1.90;;
10244;SDS011;5167;52.164;10.530;2023-08-08T04:39:39;3.08;;;1.95;;
10244;SDS011;5167;52.164;10.530;2023-08-08T04:42:04;3.22;;;2.35;;
10244;SDS011;5167;52.164;10.530;2023-08-08T04:44:30;4.45;;;2.03;;
10244;SDS011;5167;52.164;10.530;2023-08-08T04:46:55;4.55;;;2.03;;
10244;SDS011;5167;52.164;10.530;2023-08-08T04:49:21;3.13;;;1.92;;
10244;SDS011;5167;52.164;10.530;2023-08-08T04:51:46;3.63;;;1.52;;
10244;SDS011;5167;52.164;10.530;2023-08-08T04:54:12;2.08;;;1.60;;
10244;SDS011;5167;52.164;10.530;2023-08-08T04:56:37;4.22;;;1.88;;
10244;SDS011;5167;52.164;10.530;2023-08-08T04:59:04;3.58;;;2.17;;
10244;SDS011;5167;52.164;10.530;2023-08-08T05:01:29;4.38;;;2.22;;
10244;SDS011;5167;52.164;10.530;2023-08-08T05:03:55;5.07;;;1.88;;
10244;SDS011;5167;52.164;10.530;2023-08-08T05:06:20;1.90;;;1.65;;
10244;SDS011;5167;52.164;10.530;2023-08-08T05:08:46;1.98;;;1.75;;
10244;SDS011;5167;52.164;10.530;2023-08-08T05:11:11;3.58;;;2.17;;
10244;SDS011;5167;52.164;10.530;2023-08-08T05:13:37;2.67;;;1.90;;
10244;SDS011;5167;52.164;10.530;2023-08-08T05:16:02;2.00;;;1.70;;
10244;SDS011;5167;52.164;10.530;2023-08-08T05:18:28;2.88;;;1.60;;
10244;SDS011;5167;52.164;10.530;2023-08-08T05:20:54;5.50;;;2.08;;
10244;SDS011;5167;52.164;10.530;2023-08-08T05:23:19;2.42;;;2.05;;
10244;SDS011;5167;52.164;10.530;2023-08-08T05:25:45;3.33;;;1.73;;
10244;SDS011;5167;52.164;10.530;2023-08-08T05:28:10;2.40;;;1.40;;
10244;SDS011;5167;52.164;10.530;2023-08-08T05:30:36;1.88;;;1.75;;
10244;SDS011;5167;52.164;10.530;2023-08-08T05:33:01;2.92;;;2.13;;
10244;SDS011;5167;52.164;10.530;2023-08-08T05:35:27;3.10;;;1.75;;
10244;SDS011;5167;52.164;10.530;2023-08-08T05:37:52;2.53;;;1.80;;
10244;SDS011;5167;52.164;10.530;2023-08-08T05:40:18;3.38;;;1.80;;
10244;SDS011;5167;52.164;10.530;2023-08-08T05:42:43;4.35;;;1.83;;
10244;SDS011;5167;52.164;10.530;2023-08-08T05:45:09;2.90;;;2.00;;
10244;SDS011;5167;52.164;10.530;2023-08-08T05:47:34;7.45;;;1.98;;
10244;SDS011;5167;52.164;10.530;2023-08-08T05:50:00;2.08;;;1.83;;
10244;SDS011;5167;52.164;10.530;2023-08-08T05:52:25;1.90;;;1.80;;
10244;SDS011;5167;52.164;10.530;2023-08-08T05:54:51;3.97;;;2.28;;
10244;SDS011;5167;52.164;10.530;2023-08-08T05:57:16;4.57;;;2.17;;
10244;SDS011;5167;52.164;10.530;2023-08-08T05:59:42;2.60;;;1.92;;
10244;SDS011;5167;52.164;10.530;2023-08-08T06:02:09;3.83;;;2.22;;
10244;SDS011;5167;52.164;10.530;2023-08-08T06:04:35;3.25;;;2.00;;
10244;SDS011;5167;52.164;10.530;2023-08-08T06:07:01;3.03;;;2.08;;
10244;SDS011;5167;52.164;10.530;2023-08-08T06:09:26;4.10;;;2.90;;
10244;SDS011;5167;52.164;10.530;2023-08-08T06:11:52;4.95;;;2.67;;
10244;SDS011;5167;52.164;10.530;2023-08-08T06:14:18;2.85;;;2.50;;
10244;SDS011;5167;52.164;10.530;2023-08-08T06:16:43;4.25;;;2.75;;
10244;SDS011;5167;52.164;10.530;2023-08-08T06:19:09;4.13;;;2.70;;
10244;SDS011;5167;52.164;10.530;2023-08-08T06:21:35;2.88;;;2.55;;
10244;SDS011;5167;52.164;10.530;2023-08-08T06:24:01;4.75;;;2.90;;
10244;SDS011;5167;52.164;10.530;2023-08-08T06:26:26;4.40;;;2.60;;
10244;SDS011;5167;52.164;10.530;2023-08-08T06:28:52;6.05;;;2.45;;
10244;SDS011;5167;52.164;10.530;2023-08-08T06:31:17;4.45;;;2.92;;
10244;SDS011;5167;52.164;10.530;2023-08-08T06:33:44;5.75;;;2.65;;
10244;SDS011;5167;52.164;10.530;2023-08-08T06:36:09;3.83;;;2.40;;
10244;SDS011;5167;52.164;10.530;2023-08-08T06:38:35;3.53;;;2.70;;
10244;SDS011;5167;52.164;10.530;2023-08-08T06:41:02;4.13;;;2.67;;
10244;SDS011;5167;52.164;10.530;2023-08-08T06:43:28;4.68;;;2.78;;
10244;SDS011;5167;52.164;10.530;2023-08-08T06:45:53;4.70;;;2.90;;
10244;SDS011;5167;52.164;10.530;2023-08-08T06:48:20;7.40;;;2.28;;
10244;SDS011;5167;52.164;10.530;2023-08-08T06:50:46;4.38;;;2.53;;
10244;SDS011;5167;52.164;10.530;2023-08-08T06:53:11;4.07;;;2.40;;
10244;SDS011;5167;52.164;10.530;2023-08-08T06:55:37;2.88;;;2.53;;
10244;SDS011;5167;52.164;10.530;2023-08-08T06:58:02;3.50;;;2.78;;
10244;SDS011;5167;52.164;10.530;2023-08-08T07:00:28;3.30;;;2.63;;
10244;SDS011;5167;52.164;10.530;2023-08-08T07:02:54;4.43;;;2.67;;
10244;SDS011;5167;52.164;10.530;2023-08-08T07:05:19;3.10;;;2.28;;
10244;SDS011;5167;52.164;10.530;2023-08-08T07:07:45;5.28;;;2.75;;
10244;SDS011;5167;52.164;10.530;2023-08-08T07:10:11;4.13;;;2.42;;
10244;SDS011;5167;52.164;10.530;2023-08-08T07:12:37;3.67;;;2.67;;
10244;SDS011;5167;52.164;10.530;2023-08-08T07:15:03;3.05;;;2.30;;
10244;SDS011;5167;52.164;10.530;2023-08-08T07:17:32;3.70;;;2.78;;
10244;SDS011;5167;52.164;10.530;2023-08-08T07:19:57;9.40;;;3.35;;
10244;SDS011;5167;52.164;10.530;2023-08-08T07:22:23;3.92;;;2.50;;
10244;SDS011;5167;52.164;10.530;2023-08-08T07:24:49;4.45;;;2.88;;
10244;SDS011;5167;52.164;10.530;2023-08-08T07:27:14;4.78;;;2.72;;
10244;SDS011;5167;52.164;10.530;2023-08-08T07:29:40;6.45;;;2.67;;
10244;SDS011;5167;52.164;10.530;2023-08-08T07:32:06;3.95;;;2.50;;
10244;SDS011;5167;52.164;10.530;2023-08-08T07:34:31;7.10;;;2.42;;
10244;SDS011;5167;52.164;10.530;2023-08-08T07:36:58;4.32;;;2.20;;
10244;SDS011;5167;52.164;10.530;2023-08-08T07:39:24;3.67;;;2.85;;
10244;SDS011;5167;52.164;10.530;2023-08-08T07:41:49;5.55;;;2.80;;
10244;SDS011;5167;52.164;10.530;2023-08-08T07:44:15;3.72;;;2.30;;
10244;SDS011;5167;52.164;10.530;2023-08-08T07:46:40;4.38;;;3.00;;
10244;SDS011;5167;52.164;10.530;2023-08-08T07:49:06;4.93;;;2.60;;
10244;SDS011;5167;52.164;10.530;2023-08-08T07:51:32;4.53;;;2.42;;
10244;SDS011;5167;52.164;10.530;2023-08-08T07:53:58;4.25;;;2.85;;
10244;SDS011;5167;52.164;10.530;2023-08-08T07:56:24;4.68;;;2.88;;
10244;SDS011;5167;52.164;10.530;2023-08-08T07:58:49;4.60;;;2.83;;
10244;SDS011;5167;52.164;10.530;2023-08-08T08:01:15;4.20;;;3.35;;
10244;SDS011;5167;52.164;10.530;2023-08-08T08:03:40;3.63;;;3.20;;
10244;SDS011;5167;52.164;10.530;2023-08-08T08:06:06;5.25;;;3.47;;
10244;SDS011;5167;52.164;10.530;2023-08-08T08:08:32;3.70;;;2.85;;
10244;SDS011;5167;52.164;10.530;2023-08-08T08:10:58;3.10;;;2.80;;
10244;SDS011;5167;52.164;10.530;2023-08-08T08:13:23;5.40;;;2.95;;
10244;SDS011;5167;52.164;10.530;2023-08-08T08:15:49;4.03;;;2.90;;
10244;SDS011;5167;52.164;10.530;2023-08-08T08:18:15;4.68;;;2.40;;
10244;SDS011;5167;52.164;10.530;2023-08-08T08:20:42;4.25;;;3.15;;
10244;SDS011;5167;52.164;10.530;2023-08-08T08:23:08;4.47;;;2.67;;
10244;SDS011;5167;52.164;10.530;2023-08-08T08:25:34;8.88;;;2.88;;
10244;SDS011;5167;52.164;10.530;2023-08-08T08:28:00;5.60;;;3.13;;
10244;SDS011;5167;52.164;10.530;2023-08-08T08:30:25;3.03;;;2.60;;
10244;SDS011;5167;52.164;10.530;2023-08-08T08:32:51;2.78;;;2.50;;
10244;SDS011;5167;52.164;10.530;2023-08-08T08:35:17;5.43;;;2.88;;
10244;SDS011;5167;52.164;10.530;2023-08-08T08:37:43;5.07;;;2.60;;
10244;SDS011;5167;52.164;10.530;2023-08-08T08:40:08;2.88;;;2.58;;
10244;SDS011;5167;52.164;10.530;2023-08-08T08:42:35;6.65;;;3.00;;
10244;SDS011;5167;52.164;10.530;2023-08-08T08:45:02;5.28;;;2.58;;
10244;SDS011;5167;52.164;10.530;2023-08-08T08:47:30;4.80;;;2.83;;
10244;SDS011;5167;52.164;10.530;2023-08-08T08:49:56;3.95;;;2.38;;
10244;SDS011;5167;52.164;10.530;2023-08-08T08:52:22;3.20;;;2.35;;
10244;SDS011;5167;52.164;10.530;2023-08-08T08:54:49;3.78;;;3.03;;
10244;SDS011;5167;52.164;10.530;2023-08-08T08:57:16;2.03;;;1.70;;
10244;SDS011;5167;52.164;10.530;2023-08-08T08:59:41;5.97;;;2.20;;
10244;SDS011;5167;52.164;10.530;2023-08-08T09:02:07;3.70;;;2.60;;
10244;SDS011;5167;52.164;10.530;2023-08-08T09:04:33;5.15;;;2.60;;
10244;SDS011;5167;52.164;10.530;2023-08-08T09:07:00;7.82;;;3.20;;
10244;SDS011;5167;52.164;10.530;2023-08-08T09:09:26;8.07;;;3.10;;
10244;SDS011;5167;52.164;10.530;2023-08-08T09:11:56;7.18;;;2.65;;
10244;SDS011;5167;52.164;10.530;2023-08-08T09:14:22;2.58;;;1.98;;
10244;SDS011;5167;52.164;10.530;2023-08-08T09:16:50;2.20;;;2.00;;
10244;SDS011;5167;52.164;10.530;2023-08-08T09:19:21;5.80;;;2.38;;
10244;SDS011;5167;52.164;10.530;2023-08-08T09:21:47;3.88;;;2.55;;
10244;SDS011;5167;52.164;10.530;2023-08-08T09:24:13;4.05;;;2.72;;
10244;SDS011;5167;52.164;10.530;2023-08-08T09:26:42;5.25;;;3.08;;
10244;SDS011;5167;52.164;10.530;2023-08-08T09:29:09;6.13;;;3.40;;
10244;SDS011;5167;52.164;10.530;2023-08-08T09:31:37;6.68;;;3.80;;
10244;SDS011;5167;52.164;10.530;2023-08-08T09:34:03;7.78;;;3.83;;
10244;SDS011;5167;52.164;10.530;2023-08-08T09:36:29;8.82;;;3.78;;
10244;SDS011;5167;52.164;10.530;2023-08-08T09:38:55;6.10;;;3.35;;
10244;SDS011;5167;52.164;10.530;2023-08-08T09:41:22;8.50;;;3.75;;
10244;SDS011;5167;52.164;10.530;2023-08-08T09:43:48;4.82;;;3.17;;
10244;SDS011;5167;52.164;10.530;2023-08-08T09:46:15;9.20;;;3.17;;
10244;SDS011;5167;52.164;10.530;2023-08-08T09:48:41;3.40;;;3.10;;
10244;SDS011;5167;52.164;10.530;2023-08-08T09:51:08;6.88;;;3.30;;
10244;SDS011;5167;52.164;10.530;2023-08-08T09:53:33;8.57;;;3.75;;
10244;SDS011;5167;52.164;10.530;2023-08-08T09:56:00;6.22;;;3.53;;
10244;SDS011;5167;52.164;10.530;2023-08-08T09:58:28;5.38;;;3.72;;
10244;SDS011;5167;52.164;10.530;2023-08-08T10:00:54;6.72;;;3.60;;
10244;SDS011;5167;52.164;10.530;2023-08-08T10:03:19;4.13;;;3.25;;
10244;SDS011;5167;52.164;10.530;2023-08-08T10:05:45;5.22;;;3.70;;
10244;SDS011;5167;52.164;10.530;2023-08-08T10:08:11;7.68;;;4.15;;
10244;SDS011;5167;52.164;10.530;2023-08-08T10:10:40;6.55;;;4.00;;
10244;SDS011;5167;52.164;10.530;2023-08-08T10:13:06;5.80;;;4.30;;
10244;SDS011;5167;52.164;10.530;2023-08-08T10:15:32;7.25;;;4.53;;
10244;SDS011;5167;52.164;10.530;2023-08-08T10:18:03;6.63;;;4.00;;
10244;SDS011;5167;52.164;10.530;2023-08-08T10:20:30;7.03;;;3.80;;
10244;SDS011;5167;52.164;10.530;2023-08-08T10:22:58;7.80;;;4.28;;
10244;SDS011;5167;52.164;10.530;2023-08-08T10:25:26;8.80;;;4.10;;
10244;SDS011;5167;52.164;10.530;2023-08-08T10:28:09;5.80;;;3.90;;
10244;SDS011;5167;52.164;10.530;2023-08-08T10:30:42;6.57;;;3.40;;
10244;SDS011;5167;52.164;10.530;2023-08-08T10:38:21;6.68;;;4.22;;
10244;SDS011;5167;52.164;10.530;2023-08-08T10:40:56;7.78;;;4.45;;
10244;SDS011;5167;52.164;10.530;2023-08-08T10:43:29;10.13;;;4.78;;
10244;SDS011;5167;52.164;10.530;2023-08-08T10:46:01;10.80;;;4.68;;
10244;SDS011;5167;52.164;10.530;2023-08-08T10:48:28;7.63;;;4.75;;
10244;SDS011;5167;52.164;10.530;2023-08-08T10:50:55;7.63;;;4.82;;
10244;SDS011;5167;52.164;10.530;2023-08-08T10:53:29;10.43;;;5.00;;
10244;SDS011;5167;52.164;10.530;2023-08-08T10:55:58;9.65;;;4.75;;
10244;SDS011;5167;52.164;10.530;2023-08-08T10:58:34;9.57;;;4.00;;
10244;SDS011;5167;52.164;10.530;2023-08-08T11:01:04;7.30;;;4.15;;
10244;SDS011;5167;52.164;10.530;2023-08-08T11:03:33;6.85;;;3.40;;
10244;SDS011;5167;52.164;10.530;2023-08-08T11:06:00;5.68;;;3.28;;
10244;SDS011;5167;52.164;10.530;2023-08-08T11:08:28;6.65;;;3.30;;
10244;SDS011;5167;52.164;10.530;2023-08-08T11:10:55;3.67;;;3.13;;
10244;SDS011;5167;52.164;10.530;2023-08-08T11:13:21;5.72;;;3.03;;
10244;SDS011;5167;52.164;10.530;2023-08-08T11:15:46;5.05;;;3.03;;
10244;SDS011;5167;52.164;10.530;2023-08-08T11:18:12;5.03;;;3.22;;
10244;SDS011;5167;52.164;10.530;2023-08-08T11:20:38;4.50;;;2.95;;
10244;SDS011;5167;52.164;10.530;2023-08-08T11:23:04;4.28;;;2.80;;
10244;SDS011;5167;52.164;10.530;2023-08-08T11:25:35;6.20;;;3.05;;
10244;SDS011;5167;52.164;10.530;2023-08-08T11:28:00;4.95;;;2.80;;
10244;SDS011;5167;52.164;10.530;2023-08-08T11:30:28;7.20;;;2.83;;
10244;SDS011;5167;52.164;10.530;2023-08-08T11:32:55;4.55;;;2.97;;
10244;SDS011;5167;52.164;10.530;2023-08-08T11:35:24;3.80;;;2.88;;
10244;SDS011;5167;52.164;10.530;2023-08-08T11:37:54;3.50;;;2.50;;
10244;SDS011;5167;52.164;10.530;2023-08-08T11:40:22;4.22;;;2.72;;
10244;SDS011;5167;52.164;10.530;2023-08-08T11:42:50;3.33;;;2.88;;
10244;SDS011;5167;52.164;10.530;2023-08-08T11:45:16;7.03;;;3.08;;
10244;SDS011;5167;52.164;10.530;2023-08-08T11:47:42;3.60;;;2.65;;
10244;SDS011;5167;52.164;10.530;2023-08-08T11:50:09;5.43;;;2.58;;
10244;SDS011;5167;52.164;10.530;2023-08-08T11:52:42;3.45;;;2.65;;
10244;SDS011;5167;52.164;10.530;2023-08-08T11:55:12;5.95;;;2.92;;
10244;SDS011;5167;52.164;10.530;2023-08-08T11:57:38;4.85;;;3.00;;
10244;SDS011;5167;52.164;10.530;2023-08-08T12:00:06;4.80;;;2.80;;
10244;SDS011;5167;52.164;10.530;2023-08-08T12:02:39;5.18;;;2.63;;
10244;SDS011;5167;52.164;10.530;2023-08-08T12:05:07;3.15;;;2.65;;
10244;SDS011;5167;52.164;10.530;2023-08-08T12:07:37;3.22;;;2.58;;
10244;SDS011;5167;52.164;10.530;2023-08-08T12:10:06;2.58;;;2.38;;
10244;SDS011;5167;52.164;10.530;2023-08-08T12:12:40;5.57;;;2.65;;
10244;SDS011;5167;52.164;10.530;2023-08-08T12:15:07;2.90;;;2.38;;
10244;SDS011;5167;52.164;10.530;2023-08-08T12:17:33;6.32;;;2.45;;
10244;SDS011;5167;52.164;10.530;2023-08-08T12:19:59;4.40;;;2.55;;
10244;SDS011;5167;52.164;10.530;2023-08-08T12:22:26;10.55;;;2.92;;
10244;SDS011;5167;52.164;10.530;2023-08-08T12:24:51;3.65;;;2.55;;
10244;SDS011;5167;52.164;10.530;2023-08-08T12:27:17;4.82;;;2.70;;
10244;SDS011;5167;52.164;10.530;2023-08-08T12:29:43;4.78;;;2.00;;
10244;SDS011;5167;52.164;10.530;2023-08-08T12:32:09;2.30;;;2.08;;
10244;SDS011;5167;52.164;10.530;2023-08-08T12:34:35;3.70;;;2.17;;
10244;SDS011;5167;52.164;10.530;2023-08-08T12:37:00;5.25;;;2.00;;
10244;SDS011;5167;52.164;10.530;2023-08-08T12:39:26;2.30;;;2.08;;
10244;SDS011;5167;52.164;10.530;2023-08-08T12:41:52;6.88;;;2.38;;
10244;SDS011;5167;52.164;10.530;2023-08-08T12:44:17;3.13;;;1.70;;
10244;SDS011;5167;52.164;10.530;2023-08-08T12:46:43;2.30;;;2.10;;
10244;SDS011;5167;52.164;10.530;2023-08-08T12:49:08;2.00;;;1.50;;
10244;SDS011;5167;52.164;10.530;2023-08-08T12:51:34;2.60;;;1.30;;
10244;SDS011;5167;52.164;10.530;2023-08-08T12:53:59;2.30;;;1.45;;
10244;SDS011;5167;52.164;10.530;2023-08-08T12:56:25;1.50;;;1.33;;
10244;SDS011;5167;52.164;10.530;2023-08-08T12:58:51;1.38;;;1.27;;
10244;SDS011;5167;52.164;10.530;2023-08-08T13:01:16;2.75;;;1.52;;
10244;SDS011;5167;52.164;10.530;2023-08-08T13:03:42;5.95;;;1.40;;
10244;SDS011;5167;52.164;10.530;2023-08-08T13:06:07;2.60;;;1.30;;
10244;SDS011;5167;52.164;10.530;2023-08-08T13:08:36;1.60;;;1.50;;
10244;SDS011;5167;52.164;10.530;2023-08-08T13:11:01;3.45;;;1.15;;
10244;SDS011;5167;52.164;10.530;2023-08-08T13:13:27;3.00;;;1.15;;
10244;SDS011;5167;52.164;10.530;2023-08-08T13:15:52;1.67;;;1.00;;
10244;SDS011;5167;52.164;10.530;2023-08-08T13:18:18;2.60;;;1.15;;
10244;SDS011;5167;52.164;10.530;2023-08-08T13:20:43;2.17;;;1.38;;
10244;SDS011;5167;52.164;10.530;2023-08-08T13:23:09;5.65;;;1.38;;
10244;SDS011;5167;52.164;10.530;2023-08-08T13:25:34;5.57;;;1.83;;
10244;SDS011;5167;52.164;10.530;2023-08-08T13:28:00;4.22;;;1.40;;
10244;SDS011;5167;52.164;10.530;2023-08-08T13:30:27;1.52;;;1.15;;
10244;SDS011;5167;52.164;10.530;2023-08-08T13:32:53;3.00;;;1.40;;
10244;SDS011;5167;52.164;10.530;2023-08-08T13:35:19;4.10;;;1.30;;
10244;SDS011;5167;52.164;10.530;2023-08-08T13:37:44;4.57;;;1.25;;
10244;SDS011;5167;52.164;10.530;2023-08-08T13:40:14;4.30;;;1.42;;
10244;SDS011;5167;52.164;10.530;2023-08-08T13:42:40;3.50;;;1.00;;
10244;SDS011;5167;52.164;10.530;2023-08-08T13:45:05;1.27;;;1.10;;
10244;SDS011;5167;52.164;10.530;2023-08-08T13:47:31;4.30;;;1.20;;
10244;SDS011;5167;52.164;10.530;2023-08-08T13:49:57;2.15;;;1.05;;
10244;SDS011;5167;52.164;10.530;2023-08-08T13:52:22;2.22;;;1.67;;
10244;SDS011;5167;52.164;10.530;2023-08-08T13:54:49;2.30;;;1.60;;
10244;SDS011;5167;52.164;10.530;2023-08-08T13:57:14;2.50;;;1.33;;
10244;SDS011;5167;52.164;10.530;2023-08-08T13:59:40;2.70;;;1.33;;
10244;SDS011;5167;52.164;10.530;2023-08-08T14:02:05;4.60;;;1.48;;
10244;SDS011;5167;52.164;10.530;2023-08-08T14:04:31;1.65;;;1.30;;
10244;SDS011;5167;52.164;10.530;2023-08-08T14:06:56;2.50;;;1.45;;
10244;SDS011;5167;52.164;10.530;2023-08-08T14:09:22;2.55;;;1.40;;
10244;SDS011;5167;52.164;10.530;2023-08-08T14:11:47;1.75;;;1.48;;
10244;SDS011;5167;52.164;10.530;2023-08-08T14:14:13;5.00;;;1.27;;
10244;SDS011;5167;52.164;10.530;2023-08-08T14:16:38;2.20;;;1.25;;
10244;SDS011;5167;52.164;10.530;2023-08-08T14:19:04;4.00;;;1.15;;
10244;SDS011;5167;52.164;10.530;2023-08-08T14:21:29;1.98;;;1.10;;
10244;SDS011;5167;52.164;10.530;2023-08-08T14:23:55;2.00;;;1.10;;
10244;SDS011;5167;52.164;10.530;2023-08-08T14:26:20;4.45;;;1.13;;
10244;SDS011;5167;52.164;10.530;2023-08-08T14:28:46;2.25;;;1.13;;
10244;SDS011;5167;52.164;10.530;2023-08-08T14:31:12;4.18;;;1.10;;
10244;SDS011;5167;52.164;10.530;2023-08-08T14:33:37;0.80;;;0.80;;
10244;SDS011;5167;52.164;10.530;2023-08-08T14:36:03;1.65;;;1.17;;
10244;SDS011;5167;52.164;10.530;2023-08-08T14:38:33;3.22;;;1.30;;
10244;SDS011;5167;52.164;10.530;2023-08-08T14:41:00;2.47;;;1.45;;
10244;SDS011;5167;52.164;10.530;2023-08-08T14:43:25;3.63;;;1.10;;
10244;SDS011;5167;52.164;10.530;2023-08-08T14:45:51;7.10;;;1.17;;
10244;SDS011;5167;52.164;10.530;2023-08-08T14:48:17;2.35;;;1.33;;